Time;durP1;ratioP1;P1;durP2;ratioP2;P2;SDS_P1;SDS_P2;PMS_P1;PMS_P2;Temp;Humidity;BMP_temperature;BMP_pressure;BME280_temperature;BME280_humidity;BME280_pressure;Samples;Min_cycle;Max_cycle;Signal;HPM_P1;HPM_P2
2022/12/09 00:02:25;;;;;;;18.55;7.47;;;;;;;6.43;82.99;93804.50;5085285;28;20031;-84
2022/12/09 00:04:50;;;;;;;26.70;9.07;;;;;;;6.43;82.37;93793.91;5085567;28;20028;-84
2022/12/09 00:07:15;;;;;;;19.75;9.02;;;;;;;6.44;82.06;93799.97;5085557;28;20017;-85
2022/12/09 00:09:41;;;;;;;26.05;9.43;;;;;;;6.39;81.87;93808.78;5085383;28;20322;-85
2022/12/09 00:12:06;;;;;;;21.75;8.57;;;;;;;6.31;81.92;93809.44;5085287;28;20219;-85
2022/12/09 00:14:32;;;;;;;25.15;9.55;;;;;;;6.29;82.47;93797.53;5085174;28;20042;-85
2022/12/09 00:16:57;;;;;;;21.10;10.23;;;;;;;6.30;82.84;93794.59;5084042;28;20319;-86
2022/12/09 00:19:23;;;;;;;22.17;9.57;;;;;;;6.31;82.63;93805.97;5083898;28;20027;-85
2022/12/09 00:21:48;;;;;;;25.80;10.52;;;;;;;6.35;82.42;93807.78;5085002;28;20024;-84
2022/12/09 00:24:14;;;;;;;21.75;9.68;;;;;;;6.35;82.64;93805.13;5084988;28;20023;-85
2022/12/09 00:26:40;;;;;;;19.90;9.18;;;;;;;6.40;82.28;93820.94;5083336;28;20238;-85
2022/12/09 00:29:05;;;;;;;24.70;8.77;;;;;;;6.37;82.32;93816.22;5084896;28;20024;-83
2022/12/09 00:31:33;;;;;;;15.80;8.15;;;;;;;6.40;82.63;93812.22;5085019;28;20035;-84
2022/12/09 00:34:02;;;;;;;20.35;9.18;;;;;;;6.46;82.78;93819.00;5084722;28;20016;-84
2022/12/09 00:36:28;;;;;;;25.00;9.75;;;;;;;6.50;82.67;93816.56;5084586;28;20307;-84
2022/12/09 00:38:55;;;;;;;21.50;9.90;;;;;;;6.55;82.65;93800.59;5084763;28;20043;-83
2022/12/09 00:41:21;;;;;;;25.02;10.05;;;;;;;6.63;82.17;93808.69;5084470;28;20024;-84
2022/12/09 00:43:47;;;;;;;18.17;8.57;;;;;;;6.65;82.27;93802.31;5084528;28;20042;-84
2022/12/09 00:46:13;;;;;;;32.38;9.40;;;;;;;6.66;82.27;93811.84;5084383;28;20085;-85
2022/12/09 00:48:40;;;;;;;23.00;9.32;;;;;;;6.70;82.47;93812.81;5084494;28;20036;-85
2022/12/09 00:51:07;;;;;;;41.30;14.65;;;;;;;6.77;82.29;93824.59;5084434;28;20091;-84
2022/12/09 00:53:32;;;;;;;27.70;12.55;;;;;;;6.82;82.41;93813.94;5084435;28;20200;-85
2022/12/09 00:55:58;;;;;;;32.88;12.45;;;;;;;6.87;82.48;93807.75;5084307;28;20032;-85
2022/12/09 00:58:24;;;;;;;28.45;13.10;;;;;;;6.95;82.09;93809.75;5084075;28;20310;-85
2022/12/09 01:00:52;;;;;;;38.17;11.70;;;;;;;6.99;82.07;93817.91;5083901;28;20044;-86
2022/12/09 01:03:17;;;;;;;27.25;10.98;;;;;;;7.02;82.19;93814.66;5084076;28;20035;-86
2022/12/09 01:05:43;;;;;;;27.13;10.48;;;;;;;7.06;82.21;93798.97;5083300;28;20021;-85
2022/12/09 01:08:09;;;;;;;33.53;10.55;;;;;;;7.12;82.29;93787.19;5083895;28;20027;-85
2022/12/09 01:10:36;;;;;;;31.67;9.25;;;;;;;7.20;81.75;93805.84;5083870;28;20021;-87
2022/12/09 01:13:02;;;;;;;25.58;8.95;;;;;;;7.16;81.51;93790.84;5084008;28;20020;-86
2022/12/09 01:15:29;;;;;;;22.48;8.90;;;;;;;7.18;81.63;93781.50;5084083;28;20020;-85
2022/12/09 01:17:54;;;;;;;33.83;9.98;;;;;;;7.23;81.63;93775.34;5083831;28;20024;-86
2022/12/09 01:20:20;;;;;;;29.40;11.70;;;;;;;7.22;81.79;93782.53;5083749;28;20032;-86
2022/12/09 01:22:46;;;;;;;29.25;9.60;;;;;;;7.26;81.98;93785.34;5083570;28;20016;-85
2022/12/09 01:25:12;;;;;;;29.33;9.27;;;;;;;7.24;81.99;93790.16;5083733;28;20022;-87
2022/12/09 01:27:37;;;;;;;26.98;8.07;;;;;;;7.28;82.07;93785.84;5082411;28;20325;-87
2022/12/09 01:30:04;;;;;;;24.48;8.73;;;;;;;7.32;81.99;93794.78;5083626;28;20016;-85
2022/12/09 01:32:29;;;;;;;20.80;8.38;;;;;;;7.39;81.70;93792.53;5082542;28;20038;-85
2022/12/09 01:34:55;;;;;;;21.85;10.38;;;;;;;7.41;81.73;93787.72;5083583;28;20179;-85
2022/12/09 01:37:20;;;;;;;29.98;9.20;;;;;;;7.43;81.52;93798.03;5083352;28;20020;-85
2022/12/09 01:39:46;;;;;;;25.08;9.00;;;;;;;7.48;81.54;93802.47;5083269;28;20027;-82
2022/12/09 01:42:20;;;;;;;24.00;8.48;;;;;;;7.44;80.71;93813.66;5082144;28;20020;-83
2022/12/09 01:45:23;;;;;;;23.48;7.50;;;;;;;7.10;80.28;93795.44;5083202;28;20040;-84
2022/12/09 01:47:59;;;;;;;25.52;8.93;;;;;;;7.05;80.91;93792.13;5082173;28;20370;-85
2022/12/09 01:50:26;;;;;;;24.17;8.43;;;;;;;7.02;81.48;93798.75;5083457;28;20048;-85
2022/12/09 01:52:51;;;;;;;21.50;7.97;;;;;;;6.96;81.38;93782.19;5083254;28;20183;-86
2022/12/09 01:55:17;;;;;;;18.05;7.07;;;;;;;6.90;81.64;93783.34;5083107;28;20107;-86
2022/12/09 01:57:44;;;;;;;24.90;7.82;;;;;;;6.81;82.37;93780.56;5083215;28;20047;-86
2022/12/09 02:00:11;;;;;;;17.08;7.78;;;;;;;6.82;82.52;93790.09;5081739;28;20072;-85
2022/12/09 02:02:38;;;;;;;16.27;8.15;;;;;;;6.87;82.82;93797.16;5082974;28;20106;-86
2022/12/09 02:05:04;;;;;;;33.17;8.40;;;;;;;6.85;83.06;93786.06;5083065;28;20028;-85
2022/12/09 02:07:30;;;;;;;24.23;9.32;;;;;;;6.91;83.16;93778.81;5083212;28;20040;-85
2022/12/09 02:09:56;;;;;;;22.38;8.20;;;;;;;6.97;82.83;93794.34;5082888;28;20035;-86
2022/12/09 02:12:40;;;;;;;15.50;7.28;;;;;;;7.00;82.87;93780.53;5083097;28;20095;-85
2022/12/09 02:15:10;;;;;;;25.25;7.72;;;;;;;7.01;82.84;93782.09;5082734;28;20099;-85
2022/12/09 02:17:45;;;;;;;20.40;8.23;;;;;;;7.05;82.97;93776.22;5082252;28;20028;-85
2022/12/09 02:20:28;;;;;;;23.77;8.60;;;;;;;7.05;82.96;93769.03;5082791;28;20031;-85
2022/12/09 02:23:02;;;;;;;24.05;7.85;;;;;;;7.09;82.71;93770.03;5082682;28;20092;-85
2022/12/09 02:25:37;;;;;;;28.75;8.05;;;;;;;7.11;82.97;93762.56;5082787;28;20087;-85
2022/12/09 02:28:33;;;;;;;22.42;8.10;;;;;;;7.17;82.79;93757.97;5082792;28;20099;-85
2022/12/09 02:31:13;;;;;;;26.73;8.65;;;;;;;7.22;82.55;93760.50;5082654;28;20318;-85
2022/12/09 02:34:01;;;;;;;33.72;8.73;;;;;;;7.22;82.66;93744.59;5082621;28;20020;-85
2022/12/09 02:36:32;;;;;;;22.05;8.13;;;;;;;7.19;81.74;93763.75;5082921;28;20023;-85
2022/12/09 02:38:59;;;;;;;22.88;11.63;;;;;;;7.03;79.96;93768.53;5082613;28;20310;-85
2022/12/09 02:41:31;;;;;;;24.75;10.35;;;;;;;6.90;80.78;93778.06;5082376;28;20150;-85
2022/12/09 02:44:06;;;;;;;25.52;10.73;;;;;;;6.85;81.21;93786.06;5082649;28;20042;-85
2022/12/09 02:46:35;;;;;;;20.48;9.65;;;;;;;6.82;81.04;93805.22;5082721;28;20090;-84
2022/12/09 02:49:01;;;;;;;27.58;8.77;;;;;;;6.66;81.87;93801.25;5082507;28;20025;-84
2022/12/09 02:51:31;;;;;;;23.92;9.80;;;;;;;6.59;82.66;93791.81;5082476;28;20020;-85
2022/12/09 02:54:03;;;;;;;25.17;9.43;;;;;;;6.63;82.94;93805.22;5082575;28;20062;-85
2022/12/09 02:56:30;;;;;;;26.40;8.60;;;;;;;6.73;82.96;93801.63;5081363;28;20090;-86
2022/12/09 02:58:55;;;;;;;23.20;9.05;;;;;;;6.57;82.41;93796.59;5082236;28;20095;-86
2022/12/09 03:01:22;;;;;;;22.00;9.70;;;;;;;6.59;82.68;93791.00;5082292;28;20238;-86
2022/12/09 03:03:49;;;;;;;19.13;8.85;;;;;;;6.62;82.58;93795.72;5082324;28;20020;-87
2022/12/09 03:06:17;;;;;;;24.27;9.52;;;;;;;6.65;82.36;93794.34;5081046;28;20074;-84
2022/12/09 03:08:57;;;;;;;24.88;9.38;;;;;;;6.58;82.06;93792.88;5082254;28;20021;-85
2022/12/09 03:11:24;;;;;;;32.33;10.05;;;;;;;6.53;82.61;93787.63;5082383;28;20056;-86
2022/12/09 03:13:50;;;;;;;20.80;9.07;;;;;;;6.56;82.79;93805.59;5082355;28;20031;-86
2022/12/09 03:16:21;;;;;;;25.85;8.93;;;;;;;6.57;83.49;93799.25;5082271;28;20033;-86
2022/12/09 03:18:53;;;;;;;23.33;9.50;;;;;;;6.60;83.96;93801.31;5082333;28;20215;-87
2022/12/09 03:21:21;;;;;;;20.30;8.20;;;;;;;6.65;84.22;93792.47;5081123;28;20032;-85
2022/12/09 03:23:50;;;;;;;23.83;8.95;;;;;;;6.71;84.24;93787.91;5082118;28;20024;-86
2022/12/09 03:26:17;;;;;;;21.35;9.02;;;;;;;6.77;83.83;93806.06;5081004;28;20119;-86
2022/12/09 03:28:48;;;;;;;21.10;9.07;;;;;;;6.80;83.03;93796.78;5085124;28;20028;-89
2022/12/09 03:31:18;;;;;;;25.42;7.97;;;;;;;6.73;82.83;93783.09;5086379;28;20094;-88
2022/12/09 03:33:48;;;;;;;27.05;10.07;;;;;;;6.73;83.30;93780.44;5084994;28;20040;-88
2022/12/09 03:36:15;;;;;;;24.58;8.38;;;;;;;6.72;83.33;93776.25;5085985;28;20020;-86
2022/12/09 03:38:45;;;;;;;23.77;8.38;;;;;;;6.79;83.61;93779.28;5084538;28;20039;-85
2022/12/09 03:41:23;;;;;;;22.80;7.30;;;;;;;6.84;83.70;93776.56;5085617;28;20027;-86
2022/12/09 03:43:57;;;;;;;29.88;8.48;;;;;;;6.89;83.74;93773.81;5084487;28;20024;-86
2022/12/09 03:46:23;;;;;;;22.50;8.35;;;;;;;6.94;83.85;93768.44;5084426;28;20025;-86
2022/12/09 03:48:48;;;;;;;14.88;7.65;;;;;;;6.95;83.26;93761.28;5085445;28;20032;-85
2022/12/09 03:51:29;;;;;;;22.38;8.60;;;;;;;6.96;83.47;93768.94;5085653;28;20055;-86
2022/12/09 03:54:20;;;;;;;21.80;8.60;;;;;;;7.00;83.50;93775.22;5085505;28;20051;-86
2022/12/09 03:56:50;;;;;;;32.00;9.25;;;;;;;7.03;83.18;93789.75;5085154;28;20056;-86
2022/12/09 03:59:16;;;;;;;29.65;10.07;;;;;;;7.07;83.34;93784.66;5100794;28;20032;-86
2022/12/09 04:01:43;;;;;;;33.78;10.52;;;;;;;7.13;83.08;93783.47;5084020;28;20016;-87
2022/12/09 04:04:10;;;;;;;37.30;9.20;;;;;;;7.11;82.95;93785.66;5085454;28;20017;-87
2022/12/09 04:06:36;;;;;;;33.72;9.88;;;;;;;7.10;83.04;93778.75;5085209;28;20012;-86
2022/12/09 04:09:02;;;;;;;37.63;13.27;;;;;;;7.16;82.58;93777.59;5085506;28;20041;-87
2022/12/09 04:11:27;;;;;;;40.17;15.02;;;;;;;7.17;82.64;93779.94;5085261;28;20038;-86
2022/12/09 04:13:53;;;;;;;39.20;14.88;;;;;;;7.18;82.91;93781.50;5084881;28;20023;-86
2022/12/09 04:16:18;;;;;;;39.67;16.70;;;;;;;7.24;82.82;93779.56;5085031;28;20130;-87
2022/12/09 04:18:43;;;;;;;37.92;13.60;;;;;;;7.29;82.85;93776.81;5085056;28;20020;-85
2022/12/09 04:21:12;;;;;;;36.10;14.18;;;;;;;7.36;82.57;93771.13;5084995;28;20091;-86
2022/12/09 04:23:37;;;;;;;47.47;16.08;;;;;;;7.40;82.31;93767.59;5083960;28;20024;-85
2022/12/09 04:26:03;;;;;;;53.08;17.50;;;;;;;7.48;82.11;93781.25;5085132;28;20207;-85
2022/12/09 04:28:29;;;;;;;44.28;14.73;;;;;;;7.50;82.12;93787.03;5084706;28;20095;-86
2022/12/09 04:30:54;;;;;;;41.03;15.38;;;;;;;7.49;82.11;93790.75;5084976;28;20028;-87
2022/12/09 04:33:19;;;;;;;41.95;14.60;;;;;;;7.53;82.03;93781.94;5084892;28;20258;-87
2022/12/09 04:35:45;;;;;;;45.35;14.07;;;;;;;7.61;81.47;93785.75;5084688;28;20027;-85
2022/12/09 04:38:10;;;;;;;25.15;9.43;;;;;;;7.53;81.12;93786.44;5084671;28;20021;-84
2022/12/09 04:40:37;;;;;;;39.85;10.93;;;;;;;7.41;80.65;93789.59;5083726;28;20092;-84
2022/12/09 04:43:02;;;;;;;27.25;10.95;;;;;;;7.28;79.53;93787.72;5084489;28;20040;-84
2022/12/09 04:45:28;;;;;;;31.50;10.10;;;;;;;7.05;79.64;93786.81;5083247;28;20028;-84
2022/12/09 04:47:53;;;;;;;26.90;11.52;;;;;;;6.86;80.33;93779.72;5084325;28;20028;-84
2022/12/09 04:50:19;;;;;;;24.13;11.27;;;;;;;6.82;80.90;93784.03;5083244;28;20028;-86
2022/12/09 04:52:44;;;;;;;30.42;11.27;;;;;;;6.76;81.09;93796.56;5084553;28;20306;-87
2022/12/09 04:55:12;;;;;;;32.58;11.05;;;;;;;6.75;81.63;93802.13;5084314;28;20315;-85
2022/12/09 04:57:38;;;;;;;28.63;13.20;;;;;;;6.74;81.43;93803.22;5084203;28;20043;-87
2022/12/09 05:00:05;;;;;;;20.90;9.68;;;;;;;6.67;81.63;93797.50;5084175;28;20041;-86
2022/12/09 05:02:30;;;;;;;29.20;9.75;;;;;;;6.69;81.68;93805.94;5084249;28;20086;-87
2022/12/09 05:04:56;;;;;;;26.95;11.45;;;;;;;6.68;81.96;93794.56;5084248;28;20319;-87
2022/12/09 05:07:22;;;;;;;24.90;10.82;;;;;;;6.68;82.21;93794.56;5084326;28;20047;-85
2022/12/09 05:09:47;;;;;;;40.60;19.52;;;;;;;6.70;82.21;93791.63;5083822;28;20378;-85
2022/12/09 05:12:13;;;;;;;37.42;17.95;;;;;;;6.74;82.37;93787.34;5083697;28;20020;-83
2022/12/09 05:14:38;;;;;;;43.00;15.80;;;;;;;6.80;82.21;93788.81;5084093;28;20031;-88
2022/12/09 05:17:06;;;;;;;27.63;11.43;;;;;;;6.81;82.54;93787.72;5084351;28;20048;-88
2022/12/09 05:19:31;;;;;;;35.03;12.82;;;;;;;6.81;83.37;93798.31;5084405;28;20020;-88
2022/12/09 05:21:57;;;;;;;31.85;12.80;;;;;;;6.79;83.78;93790.66;5083895;28;20223;-89
2022/12/09 05:24:22;;;;;;;43.47;12.93;;;;;;;6.85;83.92;93788.72;5084004;28;20368;-88
2022/12/09 05:26:47;;;;;;;33.25;14.30;;;;;;;6.89;83.91;93778.34;5083810;28;20027;-89
2022/12/09 05:29:13;;;;;;;53.60;14.88;;;;;;;6.93;83.48;93785.41;5083878;28;20043;-88
2022/12/09 05:31:38;;;;;;;70.72;20.65;;;;;;;6.96;83.46;93782.19;5083781;28;20212;-88
2022/12/09 05:34:04;;;;;;;57.55;19.60;;;;;;;7.00;83.18;93788.47;5084336;28;20020;-88
2022/12/09 05:36:29;;;;;;;49.10;19.00;;;;;;;6.97;83.35;93789.03;5084047;28;20370;-88
2022/12/09 05:38:55;;;;;;;66.53;21.83;;;;;;;7.02;83.32;93793.47;5083798;28;20024;-88
2022/12/09 05:41:22;;;;;;;51.05;21.48;;;;;;;7.07;83.11;93806.63;5083883;28;20028;-88
2022/12/09 05:43:47;;;;;;;57.92;22.05;;;;;;;7.10;82.73;93814.00;5083950;28;20020;-90
2022/12/09 05:46:13;;;;;;;67.65;19.55;;;;;;;7.16;82.95;93817.34;5084013;28;20040;-91
2022/12/09 05:48:39;;;;;;;61.65;22.70;;;;;;;7.19;82.65;93811.47;5083799;28;20028;-86
2022/12/09 05:51:20;;;;;;;65.72;20.33;;;;;;;7.22;82.61;93809.03;5083254;28;20067;-86
2022/12/09 05:53:46;;;;;;;68.20;21.20;;;;;;;7.24;82.58;93816.66;5084382;28;20025;-88
2022/12/09 05:56:15;;;;;;;67.38;21.63;;;;;;;7.28;82.27;93825.59;5083416;28;20087;-87
2022/12/09 05:58:41;;;;;;;55.30;20.00;;;;;;;7.30;82.45;93812.84;5083249;28;20043;-88
2022/12/09 06:01:07;;;;;;;52.67;19.35;;;;;;;7.32;82.42;93809.91;5083235;28;20088;-87
2022/12/09 06:03:33;;;;;;;58.05;20.58;;;;;;;7.35;82.27;93796.84;5083395;28;20021;-83
2022/12/09 06:06:03;;;;;;;48.85;18.55;;;;;;;7.36;82.45;93798.41;5082800;28;20020;-86
2022/12/09 06:08:29;;;;;;;47.47;17.67;;;;;;;7.37;82.59;93801.88;5083098;28;20024;-84
2022/12/09 06:10:54;;;;;;;55.47;19.83;;;;;;;7.41;82.56;93802.84;5083125;28;20016;-84
2022/12/09 06:13:20;;;;;;;59.38;18.85;;;;;;;7.43;82.41;93801.47;5081847;28;20051;-85
2022/12/09 06:15:45;;;;;;;55.38;18.55;;;;;;;7.47;82.33;93807.00;5082925;28;20044;-83
2022/12/09 06:18:10;;;;;;;55.85;17.60;;;;;;;7.50;82.27;93805.59;5081914;28;20085;-85
2022/12/09 06:20:39;;;;;;;61.00;18.65;;;;;;;7.52;82.15;93811.41;5083004;28;20028;-81
2022/12/09 06:23:05;;;;;;;50.97;16.27;;;;;;;7.54;82.06;93814.53;5083800;28;20024;-81
2022/12/09 06:25:30;;;;;;;57.95;15.98;;;;;;;7.58;82.10;93810.22;5082789;28;20099;-81
2022/12/09 06:27:56;;;;;;;40.95;14.15;;;;;;;7.60;81.79;93810.72;5082857;28;20020;-81
2022/12/09 06:30:21;;;;;;;54.15;18.77;;;;;;;7.66;81.69;93816.72;5081666;28;20020;-81
2022/12/09 06:32:47;;;;;;;44.85;17.25;;;;;;;7.68;81.49;93812.69;5082674;28;20039;-81
2022/12/09 06:35:12;;;;;;;48.38;18.38;;;;;;;7.71;81.33;93822.69;5082660;28;20020;-81
2022/12/09 06:37:38;;;;;;;33.88;14.05;;;;;;;7.72;80.50;93826.13;5082569;28;20131;-80
2022/12/09 06:40:04;;;;;;;33.17;14.70;;;;;;;7.62;79.91;93832.41;5082762;28;20062;-79
2022/12/09 06:42:29;;;;;;;40.33;13.93;;;;;;;7.54;79.29;93843.72;5082629;28;20062;-78
2022/12/09 06:44:55;;;;;;;54.55;19.20;;;;;;;7.41;79.97;93848.72;5082408;28;20021;-80
2022/12/09 06:47:20;;;;;;;34.75;15.48;;;;;;;7.25;80.47;93849.28;5082611;28;20036;-80
2022/12/09 06:49:45;;;;;;;39.47;14.15;;;;;;;7.14;81.23;93846.00;5082293;28;20020;-80
2022/12/09 06:52:11;;;;;;;29.48;13.55;;;;;;;7.14;82.13;93846.00;5082414;28;20062;-80
2022/12/09 06:54:36;;;;;;;37.42;13.40;;;;;;;7.16;82.37;93847.28;5082613;28;20092;-80
2022/12/09 06:57:02;;;;;;;40.88;14.02;;;;;;;7.25;82.65;93858.03;5082652;28;20091;-80
2022/12/09 06:59:27;;;;;;;36.90;16.42;;;;;;;7.34;81.98;93844.88;5082322;28;20044;-79
2022/12/09 07:01:52;;;;;;;40.50;15.90;;;;;;;7.39;81.83;93850.88;5082320;28;20020;-78
2022/12/09 07:04:18;;;;;;;42.53;15.85;;;;;;;7.47;81.74;93859.22;5086207;28;20048;-76
2022/12/09 07:06:44;;;;;;;41.70;15.07;;;;;;;7.52;81.60;93833.41;5086496;28;20095;-76
2022/12/09 07:09:13;;;;;;;27.65;14.88;;;;;;;7.62;81.55;93845.69;5086448;28;20032;-76
2022/12/09 07:11:41;;;;;;;40.95;15.38;;;;;;;7.75;80.82;93841.44;5086542;28;20020;-76
2022/12/09 07:14:07;;;;;;;43.03;13.55;;;;;;;7.75;79.97;93839.59;5086391;28;20031;-77
2022/12/09 07:16:33;;;;;;;28.73;14.25;;;;;;;7.77;80.64;93834.75;5086452;28;20096;-77
2022/12/09 07:18:59;;;;;;;36.78;14.27;;;;;;;7.88;80.92;93839.91;5086197;28;20069;-76
2022/12/09 07:21:24;;;;;;;35.05;14.10;;;;;;;7.98;80.81;93837.03;5086024;28;20029;-81
2022/12/09 07:23:50;;;;;;;34.30;16.92;;;;;;;8.06;80.54;93846.16;5086162;28;20017;-80
2022/12/09 07:26:17;;;;;;;42.15;16.85;;;;;;;8.12;80.20;93851.06;5086095;28;20031;-77
2022/12/09 07:28:43;;;;;;;41.70;18.42;;;;;;;8.15;80.52;93849.69;5085577;28;20024;-77
2022/12/09 07:31:22;;;;;;;41.97;16.63;;;;;;;8.28;80.15;93850.75;5085796;28;20211;-79
2022/12/09 07:33:48;;;;;;;41.80;16.30;;;;;;;8.36;79.26;93844.72;5085558;28;20020;-78
2022/12/09 07:36:14;;;;;;;35.78;14.80;;;;;;;8.41;79.53;93834.03;5085757;28;20024;-77
2022/12/09 07:38:39;;;;;;;41.53;16.20;;;;;;;8.51;79.82;93846.28;5085891;28;20326;-76
2022/12/09 07:41:16;;;;;;;42.38;16.33;;;;;;;8.54;78.95;93846.47;5085680;28;20084;-77
2022/12/09 07:43:43;;;;;;;46.90;18.35;;;;;;;8.49;79.50;93843.94;5085460;28;20087;-78
2022/12/09 07:46:08;;;;;;;40.58;17.17;;;;;;;8.51;80.05;93852.41;5083864;28;20050;-78
2022/12/09 07:48:54;;;;;;;51.80;15.98;;;;;;;8.56;80.04;93825.72;5084231;28;20047;-78
2022/12/09 07:51:20;;;;;;;39.17;15.32;;;;;;;8.63;80.52;93836.72;5085381;28;20023;-78
2022/12/09 07:53:45;;;;;;;52.53;14.45;;;;;;;8.68;79.72;93819.88;5084531;28;20315;-78
2022/12/09 07:56:13;;;;;;;45.10;14.98;;;;;;;8.66;80.10;93826.56;5084748;28;20207;-78
2022/12/09 07:58:40;;;;;;;57.05;16.33;;;;;;;8.62;80.13;93835.13;5083417;28;20028;-78
2022/12/09 08:01:17;;;;;;;43.72;16.60;;;;;;;8.64;80.80;93822.34;5082270;28;20028;-78
2022/12/09 08:03:43;;;;;;;49.78;20.77;;;;;;;8.73;80.55;93832.25;5083693;28;20066;-78
2022/12/09 08:06:14;;;;;;;45.42;20.90;;;;;;;8.72;79.53;93834.13;5083522;28;20043;-78
2022/12/09 08:08:40;;;;;;;44.90;19.48;;;;;;;8.65;78.45;93831.09;5083502;28;20099;-78
2022/12/09 08:11:10;;;;;;;48.70;21.92;;;;;;;8.59;78.59;93838.41;5082899;28;20021;-78
2022/12/09 08:13:36;;;;;;;48.95;20.25;;;;;;;8.66;78.68;93843.28;5084051;28;20024;-79
2022/12/09 08:16:06;;;;;;;51.08;20.48;;;;;;;8.71;78.00;93845.03;5084778;28;20023;-78
2022/12/09 08:18:33;;;;;;;44.80;22.17;;;;;;;8.79;78.10;93846.97;5085095;28;20063;-78
2022/12/09 08:21:02;;;;;;;53.78;24.20;;;;;;;8.84;77.87;93860.94;5084831;28;20016;-78
2022/12/09 08:23:27;;;;;;;46.83;20.52;;;;;;;8.90;77.26;93866.94;5085217;28;20214;-78
2022/12/09 08:25:54;;;;;;;49.60;18.77;;;;;;;8.87;76.16;93854.22;5085100;28;20016;-78
2022/12/09 08:28:21;;;;;;;49.05;18.40;;;;;;;8.73;77.83;93869.44;5084822;28;20248;-78
2022/12/09 08:30:47;;;;;;;49.00;19.13;;;;;;;8.69;78.68;93848.03;5084928;28;20322;-78
2022/12/09 08:33:12;;;;;;;38.85;19.48;;;;;;;8.72;79.04;93865.22;5084940;28;20025;-78
2022/12/09 08:35:38;;;;;;;42.80;17.33;;;;;;;8.77;79.46;93852.63;5084892;28;20026;-78
2022/12/09 08:38:03;;;;;;;39.65;17.88;;;;;;;8.75;79.47;93840.69;5083677;28;20032;-78
2022/12/09 08:40:29;;;;;;;42.97;18.73;;;;;;;8.76;77.69;93851.03;5084612;28;20016;-78
2022/12/09 08:42:54;;;;;;;33.53;13.40;;;;;;;8.79;76.98;93841.66;5084740;28;20371;-78
2022/12/09 08:45:20;;;;;;;36.75;15.05;;;;;;;8.87;77.38;93830.31;5084753;28;20017;-78
2022/12/09 08:47:46;;;;;;;37.35;14.20;;;;;;;8.98;77.39;93836.97;5084495;28;20016;-78
2022/12/09 08:50:12;;;;;;;36.80;12.05;;;;;;;9.08;75.75;93832.47;5084549;28;20238;-78
2022/12/09 08:52:37;;;;;;;43.33;11.00;;;;;;;9.16;74.62;93823.75;5084388;28;20012;-78
2022/12/09 08:55:03;;;;;;;30.45;10.63;;;;;;;9.24;74.16;93817.72;5084345;28;20069;-78
2022/12/09 08:57:28;;;;;;;39.13;10.75;;;;;;;9.36;73.69;93815.28;5084310;28;20017;-78
2022/12/09 08:59:54;;;;;;;39.05;10.75;;;;;;;9.39;73.02;93804.00;5084114;28;20048;-79
2022/12/09 09:02:20;;;;;;;34.33;12.25;;;;;;;9.44;73.77;93800.44;5082913;28;20028;-78
2022/12/09 09:04:45;;;;;;;33.40;11.20;;;;;;;9.56;72.45;93797.19;5084229;28;20312;-78
2022/12/09 09:07:11;;;;;;;40.88;10.25;;;;;;;9.54;72.78;93775.44;5083936;28;20051;-78
2022/12/09 09:09:37;;;;;;;39.60;11.77;;;;;;;9.64;72.92;93785.78;5083721;28;20066;-78
2022/12/09 09:12:03;;;;;;;28.10;10.15;;;;;;;9.73;71.91;93781.28;5084029;28;20066;-79
2022/12/09 09:14:28;;;;;;;30.35;10.60;;;;;;;9.81;72.05;93780.53;5083961;28;20024;-79
2022/12/09 09:16:54;;;;;;;35.47;13.15;;;;;;;9.82;71.58;93770.66;5083901;28;20334;-79
2022/12/09 09:19:24;;;;;;;34.83;11.60;;;;;;;9.86;71.69;93773.50;5083792;28;20024;-78
2022/12/09 09:21:49;;;;;;;53.80;12.70;;;;;;;9.83;71.61;93781.00;5082529;28;20029;-78
2022/12/09 09:24:17;;;;;;;53.25;14.23;;;;;;;9.88;72.09;93769.44;5083860;28;20330;-79
2022/12/09 09:26:44;;;;;;;40.67;12.20;;;;;;;9.90;70.97;93758.47;5083300;28;20024;-78
2022/12/09 09:29:11;;;;;;;38.47;11.23;;;;;;;9.83;71.52;93774.88;5083613;28;20025;-78
2022/12/09 09:31:37;;;;;;;42.20;10.48;;;;;;;9.76;70.29;93766.59;5083817;28;20021;-78
2022/12/09 09:34:04;;;;;;;40.95;9.80;;;;;;;9.73;70.17;93751.22;5083886;28;20056;-78
2022/12/09 09:36:29;;;;;;;45.08;10.27;;;;;;;9.74;70.30;93748.25;5083596;28;20034;-78
2022/12/09 09:38:56;;;;;;;46.15;10.77;;;;;;;9.73;70.47;93744.03;5083223;28;20024;-79
2022/12/09 09:41:42;;;;;;;35.75;10.80;;;;;;;9.84;71.29;93741.84;5083264;28;20425;-78
2022/12/09 09:44:28;;;;;;;32.88;10.48;;;;;;;9.97;70.71;93726.84;5083199;28;20226;-78
2022/12/09 09:46:55;;;;;;;48.47;10.10;;;;;;;10.02;70.27;93737.34;5082079;28;20044;-78
2022/12/09 09:49:31;;;;;;;44.92;11.77;;;;;;;9.97;71.16;93713.53;5083219;28;20038;-78
2022/12/09 09:51:56;;;;;;;30.20;10.20;;;;;;;9.99;72.61;93735.28;5083143;28;20206;-78
2022/12/09 09:54:22;;;;;;;54.10;9.80;;;;;;;9.95;69.68;93715.72;5083119;28;20020;-78
2022/12/09 09:56:53;;;;;;;34.33;11.18;;;;;;;10.06;70.12;93716.97;5082009;28;20024;-78
2022/12/09 09:59:18;;;;;;;43.00;9.02;;;;;;;10.13;69.59;93714.63;5083159;28;20126;-78
2022/12/09 10:02:10;;;;;;;34.83;9.90;;;;;;;10.22;69.62;93718.09;5082996;28;20293;-79
2022/12/09 10:04:56;;;;;;;38.20;9.88;;;;;;;10.32;68.94;93686.91;5080852;28;20033;-79
2022/12/09 10:07:47;;;;;;;35.22;10.55;;;;;;;10.41;70.09;93669.03;5082781;28;20052;-79
2022/12/09 10:10:29;;;;;;;33.42;9.43;;;;;;;10.52;68.42;93675.63;5082699;28;20035;-79
2022/12/09 10:13:00;;;;;;;43.40;9.98;;;;;;;10.64;67.58;93669.63;5083018;28;20218;-78
2022/12/09 10:15:32;;;;;;;62.13;12.38;;;;;;;10.72;67.63;93687.47;5082823;28;20021;-79
2022/12/09 10:18:30;;;;;;;53.80;12.52;;;;;;;10.80;67.77;93688.56;5082699;28;20024;-79
2022/12/09 10:20:56;;;;;;;36.95;10.50;;;;;;;10.95;67.18;93685.38;5075041;28;20094;-78
2022/12/09 10:23:22;;;;;;;38.72;10.18;;;;;;;10.96;66.70;93675.50;5082762;28;20024;-78
2022/12/09 10:25:53;;;;;;;47.55;11.20;;;;;;;11.00;66.27;93665.75;5082729;28;20024;-79
2022/12/09 10:28:26;;;;;;;46.08;11.65;;;;;;;11.12;65.87;93649.09;5082826;28;20035;-79
2022/12/09 10:30:53;;;;;;;38.70;12.55;;;;;;;11.23;66.39;93651.06;5082717;28;20024;-79
2022/12/09 10:33:28;;;;;;;39.33;10.98;;;;;;;11.42;66.30;93645.31;5082493;28;20052;-78
2022/12/09 10:35:53;;;;;;;44.80;12.30;;;;;;;11.51;64.85;93641.81;5082697;28;20024;-79
2022/12/09 10:38:20;;;;;;;34.45;11.90;;;;;;;11.47;64.84;93643.56;5081913;28;20024;-79
2022/12/09 10:40:47;;;;;;;54.85;13.18;;;;;;;11.45;64.83;93643.88;5082675;28;20028;-78
2022/12/09 10:46:23;;;;;;;47.85;12.30;;;;;;;11.42;65.71;93625.84;5082601;28;20035;-78
2022/12/09 10:48:48;;;;;;;51.92;16.13;;;;;;;11.35;65.54;93631.69;5082603;28;20028;-78
2022/12/09 10:51:34;;;;;;;44.95;13.10;;;;;;;11.35;64.68;93614.91;5082569;28;20020;-79
2022/12/09 10:54:09;;;;;;;39.97;13.88;;;;;;;11.33;65.17;93630.44;5082591;28;20028;-79
2022/12/09 10:56:58;;;;;;;47.63;13.05;;;;;;;11.37;65.21;93626.81;5082693;28;20219;-78
2022/12/09 10:59:26;;;;;;;40.97;13.90;;;;;;;11.41;64.20;93613.59;5082191;28;20070;-79
2022/12/09 11:01:58;;;;;;;40.13;13.43;;;;;;;11.47;64.32;93633.66;5082305;28;20024;-79
2022/12/09 11:04:34;;;;;;;53.05;14.15;;;;;;;11.52;64.38;93627.34;5082295;28;20092;-79
2022/12/09 11:07:14;;;;;;;29.23;13.05;;;;;;;11.50;64.49;93611.69;5082741;28;20370;-79
2022/12/09 11:09:42;;;;;;;49.28;13.50;;;;;;;11.68;63.84;93623.00;5082540;28;20214;-79
2022/12/09 11:12:26;;;;;;;54.10;14.57;;;;;;;11.69;63.11;93613.88;5082434;28;20028;-78
2022/12/09 11:15:10;;;;;;;39.60;13.00;;;;;;;11.57;63.54;93603.13;5082229;28;20072;-78
2022/12/09 11:17:38;;;;;;;40.85;14.88;;;;;;;11.52;63.07;93609.47;5082216;28;20028;-78
2022/12/09 11:20:04;;;;;;;51.35;16.02;;;;;;;11.48;63.14;93634.44;5082488;28;20100;-78
2022/12/09 11:22:40;;;;;;;46.00;14.13;;;;;;;11.49;63.39;93636.00;5082286;28;20028;-79
2022/12/09 11:25:11;;;;;;;45.53;14.30;;;;;;;11.60;64.05;93605.16;5082206;28;20024;-79
2022/12/09 11:27:56;;;;;;;58.10;14.98;;;;;;;11.67;62.86;93605.41;5082156;28;20029;-78
2022/12/09 11:30:23;;;;;;;56.80;15.13;;;;;;;11.70;63.38;93610.09;5082133;28;20048;-79
2022/12/09 11:33:00;;;;;;;46.38;15.98;;;;;;;11.80;62.92;93609.72;5082048;28;20021;-78
2022/12/09 11:35:43;;;;;;;45.53;15.98;;;;;;;12.01;63.49;93590.28;5082153;28;20283;-79
2022/12/09 11:38:26;;;;;;;58.97;15.93;;;;;;;12.16;61.78;93592.31;5081996;28;20066;-79